createdAt,value
2022-12-31T00:00:28.714Z,95340.00
2022-12-31T00:01:28.672Z,95350.00
2022-12-31T00:02:28.792Z,95356.00
2022-12-31T00:03:28.778Z,95360.00
2022-12-31T00:55:34.389Z,95418.00
2022-12-31T00:56:35.352Z,95420.00
2022-12-31T00:57:35.363Z,95418.00
2022-12-31T00:58:35.345Z,95417.00
2022-12-31T00:59:35.340Z,95418.00
2022-12-31T01:00:35.323Z,95417.00
2022-12-31T01:01:35.442Z,95415.00
2022-12-31T01:02:35.633Z,95413.00
2022-12-31T01:03:35.340Z,95420.00
2022-12-31T01:04:35.284Z,95418.00
2022-12-31T01:05:35.282Z,95418.00
2022-12-31T01:06:35.294Z,95420.00
2022-12-31T01:07:35.257Z,95422.00
2022-12-31T01:08:35.250Z,95422.00
2022-12-31T01:09:35.249Z,95424.00
2022-12-31T01:10:35.262Z,95424.00
2022-12-31T01:11:35.247Z,95422.00
2022-12-31T01:12:35.211Z,95422.00
2022-12-31T01:13:35.215Z,95422.00
2022-12-31T01:14:35.199Z,95430.00
2022-12-31T01:15:35.254Z,95432.00
2022-12-31T01:16:35.174Z,95430.00
2022-12-31T01:17:35.162Z,95430.00
2022-12-31T01:18:35.153Z,95428.00
2022-12-31T01:19:35.147Z,95428.00
2022-12-31T01:20:35.186Z,95428.00
2022-12-31T01:21:35.145Z,95428.00
2022-12-31T01:22:35.137Z,95426.00
2022-12-31T01:23:35.109Z,95432.00
2022-12-31T01:24:35.099Z,95432.00
2022-12-31T01:25:35.106Z,95434.00
2022-12-31T01:26:35.088Z,95436.00
2022-12-31T01:27:35.101Z,95440.00
2022-12-31T01:28:35.070Z,95442.00
2022-12-31T01:29:35.061Z,95442.00
2022-12-31T01:30:35.177Z,95446.00
2022-12-31T01:31:35.045Z,95452.00
2022-12-31T01:32:35.027Z,95450.00
2022-12-31T01:33:35.023Z,95456.00
2022-12-31T01:35:35.024Z,95450.00
2022-12-31T01:36:35.004Z,95452.00
2022-12-31T01:37:34.979Z,95450.00
2022-12-31T01:38:34.984Z,95452.00
2022-12-31T01:39:34.963Z,95452.00
2022-12-31T01:40:34.953Z,95454.00
2022-12-31T01:41:34.946Z,95454.00
2022-12-31T01:42:34.942Z,95450.00
2022-12-31T01:43:34.960Z,95450.00
2022-12-31T01:44:34.919Z,95450.00
2022-12-31T01:45:34.906Z,95450.00
2022-12-31T01:46:34.949Z,95446.00
2022-12-31T01:47:34.898Z,95446.00
2022-12-31T01:48:34.881Z,95446.00
2022-12-31T01:49:34.876Z,95440.00
2022-12-31T01:50:34.872Z,95442.00
2022-12-31T01:51:34.862Z,95444.00
2022-12-31T01:52:34.850Z,95450.00
2022-12-31T01:53:34.836Z,95452.00
2022-12-31T01:54:34.824Z,95454.00
2022-12-31T01:55:34.815Z,95456.00
2022-12-31T01:56:34.816Z,95460.00
2022-12-31T01:57:34.799Z,95460.00
2022-12-31T01:58:34.806Z,95460.00
2022-12-31T01:59:34.809Z,95462.00
2022-12-31T02:00:34.774Z,95464.00
2022-12-31T02:01:34.873Z,95465.00
2022-12-31T02:02:34.857Z,95464.00
2022-12-31T02:03:34.750Z,95469.00
2022-12-31T02:04:34.739Z,95469.00
2022-12-31T02:05:34.728Z,95471.00
2022-12-31T02:06:34.723Z,95471.00
2022-12-31T02:07:34.741Z,95475.00
2022-12-31T02:08:41.642Z,95475.00
2022-12-31T02:09:34.694Z,95475.00
2022-12-31T02:10:34.687Z,95477.00
2022-12-31T02:11:34.681Z,95477.00
2022-12-31T02:12:34.666Z,95475.00
2022-12-31T02:13:34.666Z,95479.00
2022-12-31T02:14:34.643Z,95479.00
2022-12-31T02:15:34.842Z,95479.00
2022-12-31T02:16:34.636Z,95479.00
2022-12-31T02:17:34.648Z,95479.00
2022-12-31T02:18:34.608Z,95479.00
2022-12-31T02:19:34.601Z,95479.00
2022-12-31T02:20:34.604Z,95477.00
2022-12-31T02:21:34.583Z,95483.00
2022-12-31T02:22:34.578Z,95481.00
2022-12-31T02:23:34.566Z,95483.00
2022-12-31T02:24:34.551Z,95485.00
2022-12-31T02:25:34.544Z,95485.00
2022-12-31T02:26:34.546Z,95485.00
2022-12-31T02:27:34.531Z,95487.00
2022-12-31T02:28:34.525Z,95483.00
2022-12-31T02:29:34.505Z,95487.00
2022-12-31T02:30:34.509Z,95489.00
2022-12-31T02:31:34.572Z,95487.00
2022-12-31T02:32:34.488Z,95489.00
2022-12-31T02:33:34.475Z,95487.00
2022-12-31T02:34:34.466Z,95489.00
2022-12-31T02:35:34.458Z,95489.00
2022-12-31T02:36:34.448Z,95493.00
2022-12-31T02:37:34.479Z,95489.00
2022-12-31T02:38:34.425Z,95489.00
2022-12-31T02:39:34.417Z,95491.00
2022-12-31T02:40:34.428Z,95495.00
2022-12-31T02:41:34.399Z,95495.00
2022-12-31T02:42:34.450Z,95495.00
2022-12-31T02:43:34.387Z,95495.00
2022-12-31T02:44:34.416Z,95499.00
2022-12-31T02:45:34.369Z,95501.00
2022-12-31T02:46:34.376Z,95499.00
2022-12-31T02:47:34.373Z,95499.00
2022-12-31T02:48:34.348Z,95497.00
2022-12-31T02:49:34.327Z,95493.00
2022-12-31T02:50:34.331Z,95491.00
2022-12-31T02:51:34.307Z,95491.00
2022-12-31T02:52:34.299Z,95487.00
2022-12-31T02:53:34.293Z,95489.00
2022-12-31T02:54:34.280Z,95489.00
2022-12-31T02:55:34.281Z,95491.00
2022-12-31T02:56:34.263Z,95487.00
2022-12-31T02:57:34.259Z,95485.00
2022-12-31T02:58:34.247Z,95487.00
2022-12-31T02:59:34.237Z,95487.00
2022-12-31T03:00:34.284Z,95483.00
2022-12-31T03:01:34.344Z,95487.00
2022-12-31T03:02:34.283Z,95487.00
2022-12-31T03:03:34.226Z,95495.00
2022-12-31T03:04:34.304Z,95497.00
2022-12-31T03:05:34.189Z,95499.00
2022-12-31T03:06:34.182Z,95505.00
2022-12-31T03:07:34.193Z,95503.00
2022-12-31T03:08:34.155Z,95505.00
2022-12-31T03:09:34.145Z,95505.00
2022-12-31T03:10:34.143Z,95516.00
2022-12-31T03:11:34.134Z,95518.00
2022-12-31T03:12:34.128Z,95514.00
2022-12-31T03:13:34.120Z,95514.00
2022-12-31T03:14:34.111Z,95522.00
2022-12-31T03:15:34.094Z,95522.00
2022-12-31T03:16:34.120Z,95522.00
2022-12-31T03:17:34.079Z,95524.00
2022-12-31T03:18:34.070Z,95528.00
2022-12-31T03:19:34.123Z,95522.00
2022-12-31T03:20:34.047Z,95520.00
2022-12-31T03:21:34.040Z,95522.00
2022-12-31T03:22:34.029Z,95522.00
2022-12-31T03:23:34.019Z,95524.00
2022-12-31T03:24:34.014Z,95528.00
2022-12-31T03:25:34.015Z,95528.00
2022-12-31T03:26:34.001Z,95532.00
2022-12-31T03:27:33.983Z,95538.00
2022-12-31T03:28:33.980Z,95540.00
2022-12-31T03:29:33.968Z,95538.00
2022-12-31T03:30:33.979Z,95536.00
2022-12-31T03:31:33.977Z,95540.00
2022-12-31T03:32:33.948Z,95540.00
2022-12-31T03:33:33.931Z,95538.00
2022-12-31T03:34:33.917Z,95552.00
2022-12-31T03:35:33.997Z,95552.00
2022-12-31T03:36:33.898Z,95552.00
2022-12-31T03:37:33.898Z,95550.00
2022-12-31T03:38:33.881Z,95546.00
2022-12-31T03:39:33.876Z,95554.00
2022-12-31T03:40:33.866Z,95554.00
2022-12-31T03:41:33.861Z,95556.00
2022-12-31T03:42:33.847Z,95550.00
2022-12-31T03:43:33.844Z,95548.00
2022-12-31T03:44:33.834Z,95548.00
2022-12-31T03:45:33.835Z,95552.00
2022-12-31T03:46:33.813Z,95558.00
2022-12-31T03:47:33.798Z,95561.00
2022-12-31T03:48:33.798Z,95561.00
2022-12-31T03:49:33.778Z,95561.00
2022-12-31T03:50:33.777Z,95569.00
2022-12-31T03:51:33.789Z,95573.00
2022-12-31T03:52:33.751Z,95571.00
2022-12-31T03:53:33.752Z,95569.00
2022-12-31T03:54:33.740Z,95569.00
2022-12-31T03:55:33.727Z,95569.00
2022-12-31T03:56:33.717Z,95571.00
2022-12-31T03:57:33.707Z,95567.00
2022-12-31T03:58:33.696Z,95573.00
2022-12-31T03:59:33.690Z,95575.00
2022-12-31T04:00:33.698Z,95575.00
2022-12-31T04:01:33.893Z,95569.00
2022-12-31T04:02:33.789Z,95575.00
2022-12-31T04:03:33.658Z,95575.00
2022-12-31T04:04:33.657Z,95579.00
2022-12-31T04:05:33.655Z,95581.00
2022-12-31T04:06:33.622Z,95577.00
2022-12-31T04:07:33.650Z,95571.00
2022-12-31T04:08:33.610Z,95571.00
2022-12-31T04:09:33.598Z,95569.00
2022-12-31T04:16:33.575Z,95569.00
2022-12-31T04:17:33.520Z,95573.00
2022-12-31T04:18:33.516Z,95569.00
2022-12-31T04:19:33.500Z,95573.00
2022-12-31T04:20:33.490Z,95575.00
2022-12-31T04:21:35.257Z,95579.00
2022-12-31T04:22:33.476Z,95573.00
2022-12-31T04:23:33.489Z,95571.00
2022-12-31T18:24:26.252Z,95716.00
2022-12-31T18:26:25.618Z,95714.00
2022-12-31T19:17:25.143Z,95711.00
2022-12-31T20:37:24.401Z,95740.00
2022-12-31T20:38:24.389Z,95744.00
2022-12-31T20:39:24.405Z,95742.00
2022-12-31T20:40:24.375Z,95740.00
2022-12-31T20:41:24.361Z,95740.00
2022-12-31T20:42:24.346Z,95742.00
2022-12-31T20:43:24.344Z,95742.00
2022-12-31T20:44:24.331Z,95746.00
2022-12-31T20:45:24.323Z,95750.00
2022-12-31T20:46:24.362Z,95754.00
2022-12-31T20:47:24.304Z,95754.00
2022-12-31T20:48:24.292Z,95752.00
2022-12-31T20:49:52.099Z,95754.00
2022-12-31T20:50:24.281Z,95756.00
2022-12-31T20:51:24.299Z,95760.00
2022-12-31T20:52:24.269Z,95761.00
2022-12-31T20:53:24.251Z,95761.00
2022-12-31T20:54:24.233Z,95761.00
2022-12-31T20:55:24.252Z,95761.00
2022-12-31T20:56:24.216Z,95761.00
2022-12-31T20:57:26.604Z,95763.00
2022-12-31T20:58:24.205Z,95761.00
2022-12-31T20:59:24.189Z,95763.00
2022-12-31T21:00:24.186Z,95761.00
2022-12-31T21:01:24.273Z,95761.00
2022-12-31T21:02:39.296Z,95763.00
2022-12-31T21:04:03.238Z,95763.00
2022-12-31T21:04:24.326Z,95769.00
2022-12-31T21:05:24.460Z,95769.00
2022-12-31T21:06:24.127Z,95765.00
2022-12-31T21:07:24.116Z,95767.00
2022-12-31T21:08:27.160Z,95765.00
2022-12-31T21:09:24.100Z,95763.00
2022-12-31T21:10:24.116Z,95765.00
2022-12-31T21:11:24.107Z,95765.00
2022-12-31T21:12:24.080Z,95765.00
2022-12-31T21:13:24.066Z,95769.00
2022-12-31T21:14:24.061Z,95769.00
2022-12-31T21:15:24.090Z,95763.00
2022-12-31T21:16:24.035Z,95765.00
2022-12-31T21:17:24.021Z,95765.00
2022-12-31T21:18:24.019Z,95765.00
2022-12-31T21:19:24.011Z,95767.00
2022-12-31T21:20:23.998Z,95765.00
2022-12-31T21:21:23.986Z,95761.00
2022-12-31T21:22:23.983Z,95763.00
2022-12-31T21:23:23.971Z,95767.00
2022-12-31T21:24:24.446Z,95769.00
2022-12-31T21:25:23.953Z,95765.00
2022-12-31T21:26:23.935Z,95767.00
2022-12-31T21:27:23.975Z,95767.00
2022-12-31T21:28:23.918Z,95767.00
2022-12-31T21:29:23.909Z,95767.00
2022-12-31T21:30:23.930Z,95767.00
2022-12-31T21:31:23.952Z,95765.00
2022-12-31T21:32:23.880Z,95765.00
2022-12-31T21:33:23.875Z,95767.00
2022-12-31T21:34:23.873Z,95771.00
2022-12-31T21:35:54.250Z,95773.00
2022-12-31T21:36:23.852Z,95771.00
2022-12-31T21:37:23.841Z,95775.00
2022-12-31T21:38:23.863Z,95773.00
2022-12-31T21:39:23.812Z,95777.00
2022-12-31T21:40:23.825Z,95777.00
2022-12-31T21:41:24.266Z,95777.00
2022-12-31T21:42:23.801Z,95777.00
2022-12-31T21:43:23.808Z,95777.00
2022-12-31T21:44:23.770Z,95779.00
2022-12-31T21:45:23.761Z,95781.00
2022-12-31T21:46:23.846Z,95785.00
2022-12-31T21:47:45.646Z,95787.00
2022-12-31T21:48:23.751Z,95785.00
2022-12-31T21:49:23.726Z,95785.00
2022-12-31T21:51:23.708Z,95791.00
2022-12-31T21:52:23.700Z,95787.00
2022-12-31T21:53:27.945Z,95793.00
2022-12-31T21:54:23.683Z,95795.00
2022-12-31T21:55:23.674Z,95797.00
2022-12-31T21:56:23.680Z,95793.00
2022-12-31T21:57:23.653Z,95797.00
2022-12-31T21:58:26.772Z,95795.00
2022-12-31T21:59:23.657Z,95793.00
2022-12-31T22:00:41.866Z,95795.00
2022-12-31T22:01:23.748Z,95795.00
2022-12-31T22:02:23.719Z,95793.00
2022-12-31T22:03:23.636Z,95791.00
2022-12-31T22:05:00.220Z,95799.00
2022-12-31T22:05:25.386Z,95795.00
2022-12-31T22:06:23.581Z,95795.00
2022-12-31T22:07:23.566Z,95797.00
2022-12-31T22:08:23.547Z,95795.00
2022-12-31T22:09:23.543Z,95799.00
2022-12-31T22:10:23.590Z,95797.00
2022-12-31T22:11:23.541Z,95799.00
2022-12-31T22:12:23.586Z,95801.00
2022-12-31T22:13:23.506Z,95799.00
2022-12-31T22:14:23.499Z,95805.00
2022-12-31T22:15:23.508Z,95808.00
2022-12-31T22:16:23.560Z,95814.00
2022-12-31T22:17:23.471Z,95812.00
2022-12-31T22:18:23.458Z,95816.00
2022-12-31T22:19:23.448Z,95814.00
2022-12-31T22:20:27.849Z,95818.00
2022-12-31T22:21:23.598Z,95812.00
2022-12-31T22:22:23.536Z,95808.00
2022-12-31T22:23:23.530Z,95812.00
2022-12-31T22:24:23.527Z,95810.00
2022-12-31T22:25:23.509Z,95810.00
2022-12-31T22:26:23.557Z,95810.00
2022-12-31T22:27:28.900Z,95805.00
2022-12-31T22:28:39.989Z,95801.00
2022-12-31T22:29:23.479Z,95799.00
2022-12-31T22:30:23.469Z,95803.00
2022-12-31T22:31:23.543Z,95799.00
2022-12-31T22:32:23.451Z,95803.00
2022-12-31T22:33:23.625Z,95797.00
2022-12-31T22:34:23.430Z,95791.00
2022-12-31T22:35:23.421Z,95789.00
2022-12-31T22:36:23.419Z,95789.00
2022-12-31T22:37:55.086Z,95793.00
2022-12-31T22:38:23.397Z,95791.00
2022-12-31T22:39:43.525Z,95793.00
2022-12-31T22:40:23.389Z,95793.00
2022-12-31T22:41:23.368Z,95789.00
2022-12-31T22:42:23.369Z,95793.00
2022-12-31T22:43:23.348Z,95791.00
2022-12-31T22:44:23.342Z,95785.00
2022-12-31T22:45:23.330Z,95787.00
2022-12-31T22:46:23.353Z,95787.00
2022-12-31T22:47:23.336Z,95789.00
2022-12-31T22:48:23.339Z,95791.00
2022-12-31T22:49:23.299Z,95791.00
2022-12-31T22:50:23.285Z,95785.00
2022-12-31T22:51:23.280Z,95783.00
2022-12-31T22:52:23.263Z,95777.00
2022-12-31T22:53:23.269Z,95783.00
2022-12-31T22:54:23.248Z,95777.00
2022-12-31T22:55:23.233Z,95773.00
2022-12-31T22:56:23.232Z,95771.00
2022-12-31T22:57:23.218Z,95771.00
2022-12-31T22:58:23.209Z,95775.00
2022-12-31T22:59:23.200Z,95771.00
2022-12-31T23:00:23.185Z,95769.00
2022-12-31T23:01:23.262Z,95769.00
2022-12-31T23:02:23.181Z,95769.00
2022-12-31T23:03:23.216Z,95767.00
2022-12-31T23:04:23.266Z,95767.00
2022-12-31T23:05:23.151Z,95767.00
2022-12-31T23:06:23.130Z,95767.00
2022-12-31T23:07:23.161Z,95767.00
2022-12-31T23:08:24.178Z,95767.00
2022-12-31T23:09:23.113Z,95769.00
2022-12-31T23:10:23.135Z,95767.00
2022-12-31T23:11:23.088Z,95769.00
2022-12-31T23:12:23.077Z,95769.00
2022-12-31T23:13:23.068Z,95771.00
2022-12-31T23:14:23.061Z,95769.00
2022-12-31T23:15:23.050Z,95773.00
2022-12-31T23:16:23.115Z,95769.00
2022-12-31T23:17:31.249Z,95767.00
2022-12-31T23:18:23.021Z,95765.00
2022-12-31T23:19:23.079Z,95765.00
2022-12-31T23:20:23.004Z,95763.00
2022-12-31T23:21:22.993Z,95763.00
2022-12-31T23:22:22.983Z,95765.00
2022-12-31T23:23:22.982Z,95765.00
2022-12-31T23:24:26.561Z,95765.00
2022-12-31T23:25:22.965Z,95769.00
2022-12-31T23:26:22.950Z,95769.00
2022-12-31T23:27:22.943Z,95765.00
2022-12-31T23:28:22.936Z,95765.00
2022-12-31T23:29:22.922Z,95765.00
2022-12-31T23:30:22.906Z,95763.00
2022-12-31T23:31:22.950Z,95763.00
2022-12-31T23:32:22.896Z,95765.00
2022-12-31T23:33:22.879Z,95760.00
2022-12-31T23:34:22.873Z,95756.00
2022-12-31T23:35:23.284Z,95754.00
2022-12-31T23:36:22.849Z,95756.00
2022-12-31T23:37:22.849Z,95756.00
2022-12-31T23:38:22.832Z,95754.00
2022-12-31T23:39:22.851Z,95756.00
2022-12-31T23:40:22.817Z,95758.00
2022-12-31T23:41:22.813Z,95756.00
2022-12-31T23:42:22.806Z,95758.00
2022-12-31T23:43:22.815Z,95756.00
2022-12-31T23:44:22.776Z,95761.00
2022-12-31T23:45:23.649Z,95761.00
2022-12-31T23:46:22.781Z,95760.00
2022-12-31T23:47:22.748Z,95758.00
2022-12-31T23:48:22.764Z,95761.00
2022-12-31T23:49:22.751Z,95758.00
2022-12-31T23:50:22.725Z,95756.00
2022-12-31T23:51:22.740Z,95754.00
2022-12-31T23:52:22.700Z,95761.00
2022-12-31T23:53:22.727Z,95758.00
2022-12-31T23:54:22.687Z,95760.00
2022-12-31T23:55:22.674Z,95760.00
2022-12-31T23:56:23.953Z,95758.00
2022-12-31T23:57:22.759Z,95760.00
2022-12-31T23:58:22.752Z,95760.00
2022-12-31T23:59:22.740Z,95758.00
